Scalby, United Kingdom
Current Conditions -  °F | °C
As of 9:50 PM on Friday 19 Dec 2014 (Local Time) from EGXV Reporting Station
Few Clouds Few Clouds  
Wind Chill: 38°   Ceiling: Unl
Heat Index: 45°   Visibility: 6mi
Dew Point: 36°   Wind: 14mph
Humidity: 71%   Direction: 270°W
Pressure: 29.94"   Gusts: NA
Location:  53.77°N, 0.72°W
Report Text: EGXV 192150Z AUTO 27012KT 9999 FEW028/// 07/02 Q1014
Loading
Personal Weather Stations






























Interactive Weather Map New forecast layout! Learn more

10-Day Weather Forecast

Advertisements
Track Severe Weather on mobile